sensor_id;sensor_type;location;lat;lon;timestamp;P1;durP1;ratioP1;P2;durP2;ratioP2
38785;SDS011;24535;45.508;12.252;2022-10-16T00:03:58;62.88;;;47.22;;
38785;SDS011;24535;45.508;12.252;2022-10-16T00:06:24;62.97;;;47.47;;
38785;SDS011;24535;45.508;12.252;2022-10-16T00:08:51;64.82;;;47.50;;
38785;SDS011;24535;45.508;12.252;2022-10-16T00:11:18;59.60;;;44.53;;
38785;SDS011;24535;45.508;12.252;2022-10-16T00:13:48;61.05;;;45.88;;
38785;SDS011;24535;45.508;12.252;2022-10-16T00:16:16;53.83;;;39.80;;
38785;SDS011;24535;45.508;12.252;2022-10-16T00:18:42;53.97;;;40.85;;
38785;SDS011;24535;45.508;12.252;2022-10-16T00:21:12;67.70;;;46.90;;
38785;SDS011;24535;45.508;12.252;2022-10-16T00:23:40;66.80;;;48.70;;
38785;SDS011;24535;45.508;12.252;2022-10-16T00:29:27;66.60;;;48.28;;
38785;SDS011;24535;45.508;12.252;2022-10-16T00:31:53;63.55;;;46.72;;
38785;SDS011;24535;45.508;12.252;2022-10-16T00:34:19;67.75;;;49.95;;
38785;SDS011;24535;45.508;12.252;2022-10-16T00:36:45;62.80;;;44.63;;
38785;SDS011;24535;45.508;12.252;2022-10-16T00:39:16;61.60;;;45.70;;
38785;SDS011;24535;45.508;12.252;2022-10-16T00:41:44;72.45;;;49.63;;
38785;SDS011;24535;45.508;12.252;2022-10-16T00:47:13;74.88;;;54.42;;
38785;SDS011;24535;45.508;12.252;2022-10-16T00:49:43;67.65;;;47.85;;
38785;SDS011;24535;45.508;12.252;2022-10-16T00:52:09;68.68;;;47.92;;
38785;SDS011;24535;45.508;12.252;2022-10-16T00:54:35;76.68;;;55.65;;
38785;SDS011;24535;45.508;12.252;2022-10-16T00:57:03;80.78;;;56.10;;
38785;SDS011;24535;45.508;12.252;2022-10-16T00:59:33;78.63;;;58.25;;
38785;SDS011;24535;45.508;12.252;2022-10-16T01:02:35;77.93;;;57.17;;
38785;SDS011;24535;45.508;12.252;2022-10-16T01:05:01;80.10;;;57.88;;
38785;SDS011;24535;45.508;12.252;2022-10-16T01:07:45;83.65;;;60.80;;
38785;SDS011;24535;45.508;12.252;2022-10-16T01:10:38;87.35;;;60.63;;
38785;SDS011;24535;45.508;12.252;2022-10-16T01:22:07;102.45;;;67.95;;
38785;SDS011;24535;45.508;12.252;2022-10-16T01:33:30;104.55;;;68.05;;
38785;SDS011;24535;45.508;12.252;2022-10-16T01:36:10;118.20;;;73.85;;
38785;SDS011;24535;45.508;12.252;2022-10-16T01:38:40;116.68;;;76.68;;
38785;SDS011;24535;45.508;12.252;2022-10-16T01:41:14;123.68;;;79.38;;
38785;SDS011;24535;45.508;12.252;2022-10-16T01:43:49;116.05;;;76.10;;
38785;SDS011;24535;45.508;12.252;2022-10-16T01:46:24;119.43;;;78.20;;
38785;SDS011;24535;45.508;12.252;2022-10-16T01:55:22;102.57;;;67.68;;
38785;SDS011;24535;45.508;12.252;2022-10-16T01:57:53;115.65;;;76.78;;
38785;SDS011;24535;45.508;12.252;2022-10-16T02:00:20;118.40;;;76.30;;
38785;SDS011;24535;45.508;12.252;2022-10-16T02:06:00;122.43;;;79.93;;
38785;SDS011;24535;45.508;12.252;2022-10-16T02:08:27;117.80;;;78.85;;
38785;SDS011;24535;45.508;12.252;2022-10-16T02:10:56;108.65;;;74.28;;
38785;SDS011;24535;45.508;12.252;2022-10-16T02:13:28;116.43;;;74.22;;
38785;SDS011;24535;45.508;12.252;2022-10-16T02:15:58;118.97;;;75.80;;
38785;SDS011;24535;45.508;12.252;2022-10-16T02:18:26;98.20;;;68.15;;
38785;SDS011;24535;45.508;12.252;2022-10-16T02:23:57;104.63;;;72.60;;
38785;SDS011;24535;45.508;12.252;2022-10-16T02:26:40;104.68;;;70.75;;
38785;SDS011;24535;45.508;12.252;2022-10-16T02:29:11;107.18;;;68.97;;
38785;SDS011;24535;45.508;12.252;2022-10-16T02:31:42;101.60;;;69.80;;
38785;SDS011;24535;45.508;12.252;2022-10-16T02:34:12;98.78;;;65.35;;
38785;SDS011;24535;45.508;12.252;2022-10-16T02:36:59;110.22;;;70.70;;
38785;SDS011;24535;45.508;12.252;2022-10-16T02:39:27;94.65;;;63.55;;
38785;SDS011;24535;45.508;12.252;2022-10-16T02:41:54;110.50;;;72.55;;
38785;SDS011;24535;45.508;12.252;2022-10-16T02:44:19;107.22;;;74.88;;
38785;SDS011;24535;45.508;12.252;2022-10-16T02:50:06;88.72;;;62.13;;
38785;SDS011;24535;45.508;12.252;2022-10-16T02:52:32;88.55;;;59.42;;
38785;SDS011;24535;45.508;12.252;2022-10-16T02:54:57;93.13;;;58.97;;
38785;SDS011;24535;45.508;12.252;2022-10-16T02:57:38;93.68;;;62.78;;
38785;SDS011;24535;45.508;12.252;2022-10-16T03:00:06;100.70;;;70.82;;
38785;SDS011;24535;45.508;12.252;2022-10-16T03:05:19;72.57;;;52.13;;
38785;SDS011;24535;45.508;12.252;2022-10-16T03:07:45;98.25;;;65.50;;
38785;SDS011;24535;45.508;12.252;2022-10-16T03:10:10;104.32;;;68.30;;
38785;SDS011;24535;45.508;12.252;2022-10-16T03:12:36;104.63;;;72.35;;
38785;SDS011;24535;45.508;12.252;2022-10-16T03:18:07;107.65;;;70.68;;
38785;SDS011;24535;45.508;12.252;2022-10-16T03:20:33;104.95;;;69.13;;
38785;SDS011;24535;45.508;12.252;2022-10-16T03:22:58;109.13;;;72.45;;
38785;SDS011;24535;45.508;12.252;2022-10-16T03:25:24;114.25;;;76.10;;
38785;SDS011;24535;45.508;12.252;2022-10-16T03:27:49;104.07;;;71.70;;
38785;SDS011;24535;45.508;12.252;2022-10-16T03:30:15;108.78;;;73.32;;
38785;SDS011;24535;45.508;12.252;2022-10-16T03:35:31;109.07;;;69.63;;
38785;SDS011;24535;45.508;12.252;2022-10-16T03:38:00;118.93;;;77.45;;
38785;SDS011;24535;45.508;12.252;2022-10-16T03:40:26;104.47;;;75.45;;
38785;SDS011;24535;45.508;12.252;2022-10-16T03:42:51;116.20;;;74.32;;
38785;SDS011;24535;45.508;12.252;2022-10-16T03:45:36;114.85;;;71.78;;
38785;SDS011;24535;45.508;12.252;2022-10-16T03:50:32;114.10;;;68.20;;
38785;SDS011;24535;45.508;12.252;2022-10-16T03:55:37;108.75;;;71.20;;
38785;SDS011;24535;45.508;12.252;2022-10-16T03:58:03;105.28;;;69.60;;
38785;SDS011;24535;45.508;12.252;2022-10-16T04:00:28;116.28;;;78.00;;
38785;SDS011;24535;45.508;12.252;2022-10-16T04:02:54;116.13;;;76.88;;
38785;SDS011;24535;45.508;12.252;2022-10-16T04:05:19;120.80;;;77.97;;
38785;SDS011;24535;45.508;12.252;2022-10-16T04:07:45;113.25;;;74.43;;
38785;SDS011;24535;45.508;12.252;2022-10-16T04:13:19;112.15;;;71.75;;
38785;SDS011;24535;45.508;12.252;2022-10-16T04:18:57;111.50;;;73.07;;
38785;SDS011;24535;45.508;12.252;2022-10-16T04:22:08;106.10;;;74.40;;
38785;SDS011;24535;45.508;12.252;2022-10-16T04:24:33;109.47;;;71.65;;
38785;SDS011;24535;45.508;12.252;2022-10-16T04:26:58;104.95;;;73.28;;
38785;SDS011;24535;45.508;12.252;2022-10-16T04:29:24;107.80;;;72.22;;
38785;SDS011;24535;45.508;12.252;2022-10-16T04:31:49;112.03;;;74.10;;
38785;SDS011;24535;45.508;12.252;2022-10-16T04:34:15;113.78;;;76.82;;
38785;SDS011;24535;45.508;12.252;2022-10-16T04:36:40;99.07;;;67.30;;
38785;SDS011;24535;45.508;12.252;2022-10-16T04:39:06;108.40;;;74.13;;
38785;SDS011;24535;45.508;12.252;2022-10-16T04:41:33;101.35;;;68.30;;
38785;SDS011;24535;45.508;12.252;2022-10-16T04:43:59;111.40;;;74.00;;
38785;SDS011;24535;45.508;12.252;2022-10-16T04:46:24;111.03;;;72.63;;
38785;SDS011;24535;45.508;12.252;2022-10-16T04:48:50;108.95;;;72.55;;
38785;SDS011;24535;45.508;12.252;2022-10-16T04:51:15;97.35;;;68.78;;
38785;SDS011;24535;45.508;12.252;2022-10-16T04:53:41;101.60;;;66.53;;
38785;SDS011;24535;45.508;12.252;2022-10-16T04:56:06;77.97;;;55.92;;
38785;SDS011;24535;45.508;12.252;2022-10-16T04:58:32;79.60;;;57.20;;
38785;SDS011;24535;45.508;12.252;2022-10-16T05:00:58;86.75;;;58.38;;
38785;SDS011;24535;45.508;12.252;2022-10-16T05:06:19;95.00;;;63.92;;
38785;SDS011;24535;45.508;12.252;2022-10-16T05:08:45;98.18;;;65.82;;
38785;SDS011;24535;45.508;12.252;2022-10-16T05:11:34;91.05;;;64.68;;
38785;SDS011;24535;45.508;12.252;2022-10-16T05:14:01;95.43;;;67.22;;
38785;SDS011;24535;45.508;12.252;2022-10-16T05:16:26;82.40;;;58.17;;
38785;SDS011;24535;45.508;12.252;2022-10-16T05:18:52;85.75;;;58.05;;
38785;SDS011;24535;45.508;12.252;2022-10-16T05:21:19;84.05;;;61.70;;
38785;SDS011;24535;45.508;12.252;2022-10-16T05:23:45;87.25;;;58.75;;
38785;SDS011;24535;45.508;12.252;2022-10-16T05:26:10;98.30;;;69.18;;
38785;SDS011;24535;45.508;12.252;2022-10-16T05:28:39;91.65;;;65.75;;
38785;SDS011;24535;45.508;12.252;2022-10-16T05:31:41;88.68;;;64.15;;
38785;SDS011;24535;45.508;12.252;2022-10-16T05:34:16;93.43;;;68.93;;
38785;SDS011;24535;45.508;12.252;2022-10-16T05:36:41;94.72;;;68.30;;
38785;SDS011;24535;45.508;12.252;2022-10-16T05:42:30;82.75;;;62.03;;
38785;SDS011;24535;45.508;12.252;2022-10-16T05:52:19;80.13;;;61.45;;
38785;SDS011;24535;45.508;12.252;2022-10-16T05:54:44;92.70;;;64.78;;
38785;SDS011;24535;45.508;12.252;2022-10-16T05:57:10;84.03;;;60.17;;
38785;SDS011;24535;45.508;12.252;2022-10-16T06:02:57;89.30;;;62.78;;
38785;SDS011;24535;45.508;12.252;2022-10-16T06:05:23;75.60;;;56.63;;
38785;SDS011;24535;45.508;12.252;2022-10-16T06:11:13;86.93;;;61.10;;
38785;SDS011;24535;45.508;12.252;2022-10-16T06:13:41;86.00;;;61.30;;
38785;SDS011;24535;45.508;12.252;2022-10-16T06:16:07;91.40;;;65.25;;
38785;SDS011;24535;45.508;12.252;2022-10-16T06:18:34;84.13;;;63.38;;
38785;SDS011;24535;45.508;12.252;2022-10-16T06:20:59;82.50;;;60.78;;
38785;SDS011;24535;45.508;12.252;2022-10-16T06:23:31;75.03;;;54.50;;
38785;SDS011;24535;45.508;12.252;2022-10-16T06:26:03;84.03;;;59.08;;
38785;SDS011;24535;45.508;12.252;2022-10-16T06:28:32;80.28;;;60.80;;
38785;SDS011;24535;45.508;12.252;2022-10-16T06:34:19;74.50;;;55.67;;
38785;SDS011;24535;45.508;12.252;2022-10-16T06:46:57;72.82;;;52.33;;
38785;SDS011;24535;45.508;12.252;2022-10-16T06:49:22;68.63;;;53.78;;
38785;SDS011;24535;45.508;12.252;2022-10-16T06:55:06;73.75;;;56.33;;
38785;SDS011;24535;45.508;12.252;2022-10-16T07:00:35;65.50;;;48.78;;
38785;SDS011;24535;45.508;12.252;2022-10-16T07:03:00;74.85;;;55.00;;
38785;SDS011;24535;45.508;12.252;2022-10-16T07:05:25;76.53;;;55.30;;
38785;SDS011;24535;45.508;12.252;2022-10-16T07:07:51;73.40;;;53.78;;
38785;SDS011;24535;45.508;12.252;2022-10-16T07:13:39;84.68;;;57.15;;
38785;SDS011;24535;45.508;12.252;2022-10-16T07:19:46;80.38;;;57.53;;
38785;SDS011;24535;45.508;12.252;2022-10-16T07:22:20;83.47;;;56.22;;
38785;SDS011;24535;45.508;12.252;2022-10-16T07:27:45;68.15;;;50.35;;
38785;SDS011;24535;45.508;12.252;2022-10-16T07:30:11;77.13;;;56.58;;
38785;SDS011;24535;45.508;12.252;2022-10-16T07:32:36;82.93;;;61.67;;
38785;SDS011;24535;45.508;12.252;2022-10-16T07:35:17;78.70;;;58.47;;
38785;SDS011;24535;45.508;12.252;2022-10-16T07:40:20;78.70;;;57.95;;
38785;SDS011;24535;45.508;12.252;2022-10-16T07:49:33;74.25;;;56.30;;
38785;SDS011;24535;45.508;12.252;2022-10-16T07:54:51;68.80;;;51.75;;
38785;SDS011;24535;45.508;12.252;2022-10-16T07:57:17;73.40;;;55.65;;
38785;SDS011;24535;45.508;12.252;2022-10-16T07:59:45;72.82;;;55.25;;
38785;SDS011;24535;45.508;12.252;2022-10-16T08:02:11;77.18;;;56.47;;
38785;SDS011;24535;45.508;12.252;2022-10-16T08:08:01;76.47;;;56.30;;
38785;SDS011;24535;45.508;12.252;2022-10-16T08:25:05;80.22;;;59.42;;
38785;SDS011;24535;45.508;12.252;2022-10-16T08:30:52;80.60;;;56.63;;
38785;SDS011;24535;45.508;12.252;2022-10-16T08:33:29;76.68;;;57.15;;
38785;SDS011;24535;45.508;12.252;2022-10-16T08:44:29;78.50;;;57.90;;
38785;SDS011;24535;45.508;12.252;2022-10-16T08:53:14;79.15;;;56.42;;
38785;SDS011;24535;45.508;12.252;2022-10-16T09:58:42;57.60;;;44.13;;
38785;SDS011;24535;45.508;12.252;2022-10-16T10:01:13;61.42;;;44.05;;
38785;SDS011;24535;45.508;12.252;2022-10-16T10:46:25;50.25;;;38.30;;
38785;SDS011;24535;45.508;12.252;2022-10-16T11:47:08;34.40;;;27.33;;
38785;SDS011;24535;45.508;12.252;2022-10-16T11:56:17;34.45;;;27.30;;
38785;SDS011;24535;45.508;12.252;2022-10-16T12:08:46;43.17;;;33.13;;
38785;SDS011;24535;45.508;12.252;2022-10-16T12:25:42;34.03;;;26.73;;
38785;SDS011;24535;45.508;12.252;2022-10-16T12:30:43;38.40;;;29.92;;
38785;SDS011;24535;45.508;12.252;2022-10-16T12:39:16;37.30;;;29.63;;
38785;SDS011;24535;45.508;12.252;2022-10-16T12:46:52;37.75;;;27.58;;
38785;SDS011;24535;45.508;12.252;2022-10-16T12:49:37;39.53;;;29.02;;
38785;SDS011;24535;45.508;12.252;2022-10-16T12:52:26;43.97;;;30.40;;
38785;SDS011;24535;45.508;12.252;2022-10-16T13:32:28;33.33;;;28.48;;
38785;SDS011;24535;45.508;12.252;2022-10-16T13:34:55;31.40;;;27.67;;
38785;SDS011;24535;45.508;12.252;2022-10-16T13:44:08;38.50;;;30.63;;
38785;SDS011;24535;45.508;12.252;2022-10-16T13:56:42;36.08;;;28.27;;
38785;SDS011;24535;45.508;12.252;2022-10-16T13:59:22;38.13;;;31.02;;
38785;SDS011;24535;45.508;12.252;2022-10-16T14:29:29;40.70;;;33.65;;
38785;SDS011;24535;45.508;12.252;2022-10-16T14:47:35;33.05;;;28.60;;
38785;SDS011;24535;45.508;12.252;2022-10-16T14:53:34;40.65;;;31.02;;
38785;SDS011;24535;45.508;12.252;2022-10-16T15:05:51;39.85;;;33.90;;
38785;SDS011;24535;45.508;12.252;2022-10-16T15:08:16;40.85;;;33.67;;
38785;SDS011;24535;45.508;12.252;2022-10-16T15:13:43;36.95;;;32.35;;
38785;SDS011;24535;45.508;12.252;2022-10-16T15:16:13;44.22;;;32.90;;
38785;SDS011;24535;45.508;12.252;2022-10-16T15:18:40;36.80;;;31.15;;
38785;SDS011;24535;45.508;12.252;2022-10-16T15:24:27;36.30;;;32.22;;
38785;SDS011;24535;45.508;12.252;2022-10-16T15:41:54;44.00;;;36.28;;
38785;SDS011;24535;45.508;12.252;2022-10-16T15:53:41;38.92;;;34.63;;
38785;SDS011;24535;45.508;12.252;2022-10-16T16:01:10;44.72;;;37.85;;
38785;SDS011;24535;45.508;12.252;2022-10-16T16:06:13;47.53;;;39.22;;
38785;SDS011;24535;45.508;12.252;2022-10-16T16:11:46;41.35;;;33.35;;
38785;SDS011;24535;45.508;12.252;2022-10-16T16:23:43;46.00;;;39.63;;
38785;SDS011;24535;45.508;12.252;2022-10-16T16:38:47;50.33;;;44.40;;
38785;SDS011;24535;45.508;12.252;2022-10-16T16:47:37;50.80;;;42.78;;
38785;SDS011;24535;45.508;12.252;2022-10-16T16:50:03;50.63;;;42.95;;
38785;SDS011;24535;45.508;12.252;2022-10-16T16:52:30;52.63;;;45.28;;
38785;SDS011;24535;45.508;12.252;2022-10-16T16:55:14;57.75;;;46.80;;
38785;SDS011;24535;45.508;12.252;2022-10-16T16:57:39;51.08;;;44.45;;
38785;SDS011;24535;45.508;12.252;2022-10-16T17:06:30;52.88;;;44.42;;
38785;SDS011;24535;45.508;12.252;2022-10-16T17:08:56;50.60;;;42.40;;
38785;SDS011;24535;45.508;12.252;2022-10-16T17:36:55;44.03;;;38.25;;
38785;SDS011;24535;45.508;12.252;2022-10-16T17:39:21;57.30;;;47.47;;
38785;SDS011;24535;45.508;12.252;2022-10-16T17:41:47;56.75;;;46.97;;
38785;SDS011;24535;45.508;12.252;2022-10-16T17:44:22;54.60;;;46.28;;
38785;SDS011;24535;45.508;12.252;2022-10-16T17:55:15;68.35;;;57.72;;
38785;SDS011;24535;45.508;12.252;2022-10-16T18:06:47;60.33;;;50.45;;
38785;SDS011;24535;45.508;12.252;2022-10-16T18:09:14;62.72;;;52.80;;
38785;SDS011;24535;45.508;12.252;2022-10-16T18:11:42;65.20;;;52.38;;
38785;SDS011;24535;45.508;12.252;2022-10-16T18:23:08;62.90;;;48.97;;
38785;SDS011;24535;45.508;12.252;2022-10-16T18:31:11;62.10;;;51.85;;
38785;SDS011;24535;45.508;12.252;2022-10-16T18:36:16;55.65;;;45.20;;
38785;SDS011;24535;45.508;12.252;2022-10-16T18:38:44;55.25;;;46.30;;
38785;SDS011;24535;45.508;12.252;2022-10-16T18:41:10;64.10;;;52.90;;
38785;SDS011;24535;45.508;12.252;2022-10-16T18:43:36;68.32;;;55.05;;
38785;SDS011;24535;45.508;12.252;2022-10-16T18:46:03;64.85;;;54.92;;
38785;SDS011;24535;45.508;12.252;2022-10-16T18:55:04;67.03;;;53.72;;
38785;SDS011;24535;45.508;12.252;2022-10-16T18:57:31;64.82;;;52.05;;
38785;SDS011;24535;45.508;12.252;2022-10-16T18:59:56;64.03;;;52.08;;
38785;SDS011;24535;45.508;12.252;2022-10-16T19:02:43;75.55;;;60.35;;
38785;SDS011;24535;45.508;12.252;2022-10-16T19:05:07;65.90;;;53.10;;
38785;SDS011;24535;45.508;12.252;2022-10-16T19:13:39;59.28;;;49.92;;
38785;SDS011;24535;45.508;12.252;2022-10-16T19:26:13;70.53;;;54.67;;
38785;SDS011;24535;45.508;12.252;2022-10-16T19:28:46;73.47;;;57.75;;
38785;SDS011;24535;45.508;12.252;2022-10-16T19:34:08;67.18;;;53.28;;
38785;SDS011;24535;45.508;12.252;2022-10-16T19:54:42;70.57;;;55.50;;
38785;SDS011;24535;45.508;12.252;2022-10-16T20:00:28;77.90;;;61.10;;
38785;SDS011;24535;45.508;12.252;2022-10-16T20:02:55;79.82;;;60.50;;
38785;SDS011;24535;45.508;12.252;2022-10-16T20:05:20;69.47;;;55.13;;
38785;SDS011;24535;45.508;12.252;2022-10-16T20:07:46;78.90;;;63.60;;
38785;SDS011;24535;45.508;12.252;2022-10-16T20:13:24;73.63;;;59.22;;
38785;SDS011;24535;45.508;12.252;2022-10-16T20:15:49;85.43;;;64.32;;
38785;SDS011;24535;45.508;12.252;2022-10-16T20:21:47;77.88;;;59.90;;
38785;SDS011;24535;45.508;12.252;2022-10-16T20:24:05;77.68;;;60.38;;
38785;SDS011;24535;45.508;12.252;2022-10-16T20:26:33;70.28;;;58.13;;
38785;SDS011;24535;45.508;12.252;2022-10-16T20:29:04;72.15;;;57.47;;
38785;SDS011;24535;45.508;12.252;2022-10-16T20:31:54;78.25;;;60.00;;
38785;SDS011;24535;45.508;12.252;2022-10-16T20:34:26;75.95;;;59.28;;
38785;SDS011;24535;45.508;12.252;2022-10-16T20:37:20;73.70;;;60.47;;
38785;SDS011;24535;45.508;12.252;2022-10-16T20:39:46;76.97;;;61.25;;
38785;SDS011;24535;45.508;12.252;2022-10-16T20:42:35;68.72;;;55.55;;
38785;SDS011;24535;45.508;12.252;2022-10-16T20:45:00;65.78;;;53.22;;
38785;SDS011;24535;45.508;12.252;2022-10-16T20:47:26;74.50;;;58.40;;
38785;SDS011;24535;45.508;12.252;2022-10-16T20:49:51;71.35;;;58.17;;
38785;SDS011;24535;45.508;12.252;2022-10-16T20:52:17;69.07;;;55.85;;
38785;SDS011;24535;45.508;12.252;2022-10-16T20:54:45;69.95;;;55.63;;
38785;SDS011;24535;45.508;12.252;2022-10-16T20:57:11;66.88;;;52.85;;
38785;SDS011;24535;45.508;12.252;2022-10-16T20:59:36;74.50;;;56.90;;
38785;SDS011;24535;45.508;12.252;2022-10-16T21:02:02;81.22;;;60.40;;
38785;SDS011;24535;45.508;12.252;2022-10-16T21:04:29;55.60;;;45.97;;
38785;SDS011;24535;45.508;12.252;2022-10-16T21:07:01;65.78;;;50.00;;
38785;SDS011;24535;45.508;12.252;2022-10-16T21:09:26;68.28;;;54.45;;
38785;SDS011;24535;45.508;12.252;2022-10-16T21:11:52;69.57;;;55.88;;
38785;SDS011;24535;45.508;12.252;2022-10-16T21:14:17;74.57;;;58.70;;
38785;SDS011;24535;45.508;12.252;2022-10-16T21:16:42;68.15;;;53.15;;
38785;SDS011;24535;45.508;12.252;2022-10-16T21:19:08;74.78;;;57.83;;
38785;SDS011;24535;45.508;12.252;2022-10-16T21:21:34;77.68;;;59.55;;
38785;SDS011;24535;45.508;12.252;2022-10-16T21:24:06;75.57;;;60.20;;
38785;SDS011;24535;45.508;12.252;2022-10-16T21:26:32;81.38;;;62.70;;
38785;SDS011;24535;45.508;12.252;2022-10-16T21:28:58;77.82;;;59.42;;
38785;SDS011;24535;45.508;12.252;2022-10-16T21:31:28;73.28;;;59.72;;
38785;SDS011;24535;45.508;12.252;2022-10-16T21:33:54;66.55;;;53.97;;
38785;SDS011;24535;45.508;12.252;2022-10-16T21:36:27;73.80;;;60.60;;
38785;SDS011;24535;45.508;12.252;2022-10-16T21:38:55;77.05;;;59.95;;
38785;SDS011;24535;45.508;12.252;2022-10-16T21:41:26;60.97;;;51.95;;
38785;SDS011;24535;45.508;12.252;2022-10-16T21:43:56;71.22;;;55.70;;
38785;SDS011;24535;45.508;12.252;2022-10-16T21:46:23;81.60;;;62.00;;
38785;SDS011;24535;45.508;12.252;2022-10-16T21:48:56;84.28;;;63.30;;
38785;SDS011;24535;45.508;12.252;2022-10-16T21:51:35;79.85;;;60.13;;
38785;SDS011;24535;45.508;12.252;2022-10-16T21:54:21;73.68;;;56.60;;
38785;SDS011;24535;45.508;12.252;2022-10-16T21:56:50;63.42;;;52.28;;
38785;SDS011;24535;45.508;12.252;2022-10-16T21:59:16;85.32;;;62.42;;
38785;SDS011;24535;45.508;12.252;2022-10-16T22:01:42;91.03;;;65.63;;
38785;SDS011;24535;45.508;12.252;2022-10-16T22:04:11;70.00;;;56.50;;
38785;SDS011;24535;45.508;12.252;2022-10-16T22:09:37;79.28;;;60.42;;
38785;SDS011;24535;45.508;12.252;2022-10-16T22:14:59;75.65;;;60.42;;
38785;SDS011;24535;45.508;12.252;2022-10-16T22:17:25;80.45;;;63.88;;
38785;SDS011;24535;45.508;12.252;2022-10-16T22:19:50;82.35;;;62.85;;
38785;SDS011;24535;45.508;12.252;2022-10-16T22:22:15;82.82;;;63.97;;
38785;SDS011;24535;45.508;12.252;2022-10-16T22:24:41;86.70;;;61.40;;
38785;SDS011;24535;45.508;12.252;2022-10-16T22:27:06;84.78;;;63.40;;
38785;SDS011;24535;45.508;12.252;2022-10-16T22:29:32;83.72;;;64.07;;
38785;SDS011;24535;45.508;12.252;2022-10-16T22:31:57;75.20;;;60.20;;
38785;SDS011;24535;45.508;12.252;2022-10-16T22:34:22;84.75;;;65.28;;
38785;SDS011;24535;45.508;12.252;2022-10-16T22:36:48;92.65;;;68.68;;
38785;SDS011;24535;45.508;12.252;2022-10-16T22:39:15;92.13;;;65.13;;
38785;SDS011;24535;45.508;12.252;2022-10-16T22:41:41;81.75;;;64.03;;
38785;SDS011;24535;45.508;12.252;2022-10-16T22:44:09;80.57;;;63.65;;
38785;SDS011;24535;45.508;12.252;2022-10-16T22:46:36;71.50;;;57.25;;
38785;SDS011;24535;45.508;12.252;2022-10-16T22:49:01;76.00;;;58.88;;
38785;SDS011;24535;45.508;12.252;2022-10-16T22:51:30;83.50;;;65.85;;
38785;SDS011;24535;45.508;12.252;2022-10-16T22:54:14;87.30;;;66.57;;
38785;SDS011;24535;45.508;12.252;2022-10-16T22:56:39;87.82;;;62.63;;
38785;SDS011;24535;45.508;12.252;2022-10-16T22:59:05;88.85;;;66.28;;
38785;SDS011;24535;45.508;12.252;2022-10-16T23:01:36;92.07;;;65.95;;
38785;SDS011;24535;45.508;12.252;2022-10-16T23:04:07;73.57;;;57.78;;
38785;SDS011;24535;45.508;12.252;2022-10-16T23:06:49;80.07;;;62.92;;
38785;SDS011;24535;45.508;12.252;2022-10-16T23:09:14;85.63;;;64.30;;
38785;SDS011;24535;45.508;12.252;2022-10-16T23:11:40;87.35;;;66.63;;
38785;SDS011;24535;45.508;12.252;2022-10-16T23:14:05;85.20;;;62.75;;
38785;SDS011;24535;45.508;12.252;2022-10-16T23:22:33;78.93;;;61.13;;
38785;SDS011;24535;45.508;12.252;2022-10-16T23:24:58;84.25;;;65.88;;
38785;SDS011;24535;45.508;12.252;2022-10-16T23:27:23;92.55;;;65.78;;
38785;SDS011;24535;45.508;12.252;2022-10-16T23:29:53;83.30;;;61.95;;
38785;SDS011;24535;45.508;12.252;2022-10-16T23:32:19;91.72;;;69.53;;
38785;SDS011;24535;45.508;12.252;2022-10-16T23:34:45;89.13;;;66.03;;
38785;SDS011;24535;45.508;12.252;2022-10-16T23:37:11;86.57;;;64.90;;
38785;SDS011;24535;45.508;12.252;2022-10-16T23:39:36;81.93;;;63.25;;
38785;SDS011;24535;45.508;12.252;2022-10-16T23:42:05;84.85;;;65.43;;
38785;SDS011;24535;45.508;12.252;2022-10-16T23:44:30;84.50;;;63.17;;
38785;SDS011;24535;45.508;12.252;2022-10-16T23:49:21;94.28;;;66.88;;
38785;SDS011;24535;45.508;12.252;2022-10-16T23:51:49;94.82;;;68.90;;
38785;SDS011;24535;45.508;12.252;2022-10-16T23:54:14;91.80;;;67.45;;
38785;SDS011;24535;45.508;12.252;2022-10-16T23:56:40;91.05;;;68.70;;
38785;SDS011;24535;45.508;12.252;2022-10-16T23:59:05;90.55;;;66.07;;
